Listowel, Canada
Current Conditions -  °F | °C
As of 1:00 PM on Friday 28 Nov 2014 (Local Time) from CYKF Reporting Station
Light Snow Light Snow  
Wind Chill: 12°   Ceiling: 2700
Heat Index: 23°   Visibility: 9mi
Dew Point: 16°   Wind: 12mph
Humidity: 74%   Direction: 270°W
Pressure: 30.19"   Gusts: NA
Location:  43.73°N, 80.97°W
Report Text: CYKF 281800Z AUTO 27010KT 9SM -SN OVC027 M05/M09 A3019 RMK SLP242
Loading
Personal Weather Stations






























Interactive Weather Map New forecast layout! Learn more

10-Day Weather Forecast

Advertisements
Track Severe Weather on mobile